sensor_id;sensor_type;location;lat;lon;timestamp;P1;durP1;ratioP1;P2;durP2;ratioP2
56860;SDS011;42744;51.094;3.490;2023-06-05T00:02:03;10.73;;;5.13;;
56860;SDS011;42744;51.094;3.490;2023-06-05T00:04:29;9.47;;;5.07;;
56860;SDS011;42744;51.094;3.490;2023-06-05T00:06:55;11.23;;;4.67;;
56860;SDS011;42744;51.094;3.490;2023-06-05T00:09:22;9.73;;;4.83;;
56860;SDS011;42744;51.094;3.490;2023-06-05T00:11:49;7.50;;;4.43;;
56860;SDS011;42744;51.094;3.490;2023-06-05T00:14:15;9.63;;;5.17;;
56860;SDS011;42744;51.094;3.490;2023-06-05T00:16:41;8.13;;;4.47;;
56860;SDS011;42744;51.094;3.490;2023-06-05T00:19:07;10.23;;;4.90;;
56860;SDS011;42744;51.094;3.490;2023-06-05T00:21:33;9.47;;;5.30;;
56860;SDS011;42744;51.094;3.490;2023-06-05T00:24:00;8.33;;;4.80;;
56860;SDS011;42744;51.094;3.490;2023-06-05T00:26:26;7.43;;;4.90;;
56860;SDS011;42744;51.094;3.490;2023-06-05T00:28:52;8.63;;;5.07;;
56860;SDS011;42744;51.094;3.490;2023-06-05T00:31:18;8.93;;;5.10;;
56860;SDS011;42744;51.094;3.490;2023-06-05T00:33:47;10.90;;;5.30;;
56860;SDS011;42744;51.094;3.490;2023-06-05T00:36:14;7.50;;;5.57;;
56860;SDS011;42744;51.094;3.490;2023-06-05T00:38:40;10.00;;;5.47;;
56860;SDS011;42744;51.094;3.490;2023-06-05T00:41:06;9.10;;;5.27;;
56860;SDS011;42744;51.094;3.490;2023-06-05T00:43:32;7.57;;;5.40;;
56860;SDS011;42744;51.094;3.490;2023-06-05T00:45:59;8.50;;;5.27;;
56860;SDS011;42744;51.094;3.490;2023-06-05T00:48:32;10.53;;;5.63;;
56860;SDS011;42744;51.094;3.490;2023-06-05T00:50:59;9.83;;;5.40;;
56860;SDS011;42744;51.094;3.490;2023-06-05T00:53:25;9.70;;;5.80;;
56860;SDS011;42744;51.094;3.490;2023-06-05T00:55:58;9.67;;;5.33;;
56860;SDS011;42744;51.094;3.490;2023-06-05T00:58:25;9.27;;;5.27;;
56860;SDS011;42744;51.094;3.490;2023-06-05T01:00:54;10.33;;;5.67;;
56860;SDS011;42744;51.094;3.490;2023-06-05T01:03:21;9.83;;;6.67;;
56860;SDS011;42744;51.094;3.490;2023-06-05T01:05:49;6.87;;;5.60;;
56860;SDS011;42744;51.094;3.490;2023-06-05T01:08:15;10.23;;;7.13;;
56860;SDS011;42744;51.094;3.490;2023-06-05T01:10:43;6.77;;;6.03;;
56860;SDS011;42744;51.094;3.490;2023-06-05T01:13:11;10.83;;;7.20;;
56860;SDS011;42744;51.094;3.490;2023-06-05T01:15:45;9.60;;;6.93;;
56860;SDS011;42744;51.094;3.490;2023-06-05T01:18:11;12.77;;;7.30;;
56860;SDS011;42744;51.094;3.490;2023-06-05T01:20:38;11.77;;;7.37;;
56860;SDS011;42744;51.094;3.490;2023-06-05T01:23:06;9.97;;;8.20;;
56860;SDS011;42744;51.094;3.490;2023-06-05T01:25:33;16.10;;;8.03;;
56860;SDS011;42744;51.094;3.490;2023-06-05T01:28:08;13.87;;;8.73;;
56860;SDS011;42744;51.094;3.490;2023-06-05T01:30:38;11.17;;;8.00;;
56860;SDS011;42744;51.094;3.490;2023-06-05T01:33:15;12.43;;;8.57;;
56860;SDS011;42744;51.094;3.490;2023-06-05T01:35:47;10.93;;;8.70;;
56860;SDS011;42744;51.094;3.490;2023-06-05T01:38:17;11.87;;;8.90;;
56860;SDS011;42744;51.094;3.490;2023-06-05T01:40:43;10.87;;;8.20;;
56860;SDS011;42744;51.094;3.490;2023-06-05T01:43:11;13.00;;;9.13;;
56860;SDS011;42744;51.094;3.490;2023-06-05T01:45:38;11.80;;;8.37;;
56860;SDS011;42744;51.094;3.490;2023-06-05T01:48:08;11.13;;;8.97;;
56860;SDS011;42744;51.094;3.490;2023-06-05T01:50:36;11.77;;;9.47;;
56860;SDS011;42744;51.094;3.490;2023-06-05T01:53:03;11.50;;;8.47;;
56860;SDS011;42744;51.094;3.490;2023-06-05T01:55:31;11.70;;;8.90;;
56860;SDS011;42744;51.094;3.490;2023-06-05T01:57:57;14.10;;;9.07;;
56860;SDS011;42744;51.094;3.490;2023-06-05T02:00:23;15.20;;;10.17;;
56860;SDS011;42744;51.094;3.490;2023-06-05T02:02:49;11.80;;;9.20;;
56860;SDS011;42744;51.094;3.490;2023-06-05T02:05:17;12.67;;;9.20;;
56860;SDS011;42744;51.094;3.490;2023-06-05T02:07:46;11.90;;;9.17;;
56860;SDS011;42744;51.094;3.490;2023-06-05T02:10:14;13.50;;;9.60;;
56860;SDS011;42744;51.094;3.490;2023-06-05T02:12:44;15.80;;;9.43;;
56860;SDS011;42744;51.094;3.490;2023-06-05T02:15:10;12.60;;;9.17;;
56860;SDS011;42744;51.094;3.490;2023-06-05T02:17:40;11.97;;;9.07;;
56860;SDS011;42744;51.094;3.490;2023-06-05T02:20:11;13.60;;;9.77;;
56860;SDS011;42744;51.094;3.490;2023-06-05T02:22:38;13.53;;;9.53;;
56860;SDS011;42744;51.094;3.490;2023-06-05T02:25:05;15.30;;;9.53;;
56860;SDS011;42744;51.094;3.490;2023-06-05T02:27:32;17.63;;;9.73;;
56860;SDS011;42744;51.094;3.490;2023-06-05T02:29:58;14.90;;;9.70;;
56860;SDS011;42744;51.094;3.490;2023-06-05T02:32:24;14.03;;;9.90;;
56860;SDS011;42744;51.094;3.490;2023-06-05T02:34:52;13.23;;;9.70;;
56860;SDS011;42744;51.094;3.490;2023-06-05T02:37:18;19.63;;;10.40;;
56860;SDS011;42744;51.094;3.490;2023-06-05T02:39:48;13.33;;;9.33;;
56860;SDS011;42744;51.094;3.490;2023-06-05T02:42:14;14.07;;;10.03;;
56860;SDS011;42744;51.094;3.490;2023-06-05T02:44:41;14.20;;;10.07;;
56860;SDS011;42744;51.094;3.490;2023-06-05T02:47:07;12.97;;;9.97;;
56860;SDS011;42744;51.094;3.490;2023-06-05T02:49:33;12.80;;;10.60;;
56860;SDS011;42744;51.094;3.490;2023-06-05T02:51:59;14.03;;;10.67;;
56860;SDS011;42744;51.094;3.490;2023-06-05T02:54:27;14.33;;;10.70;;
56860;SDS011;42744;51.094;3.490;2023-06-05T02:57:00;17.80;;;11.53;;
56860;SDS011;42744;51.094;3.490;2023-06-05T02:59:27;16.63;;;10.83;;
56860;SDS011;42744;51.094;3.490;2023-06-05T03:01:57;16.17;;;11.63;;
56860;SDS011;42744;51.094;3.490;2023-06-05T03:04:24;14.63;;;10.60;;
56860;SDS011;42744;51.094;3.490;2023-06-05T03:06:50;15.63;;;11.43;;
56860;SDS011;42744;51.094;3.490;2023-06-05T03:09:19;13.40;;;10.93;;
56860;SDS011;42744;51.094;3.490;2023-06-05T03:11:45;15.93;;;11.93;;
56860;SDS011;42744;51.094;3.490;2023-06-05T03:14:11;15.70;;;11.67;;
56860;SDS011;42744;51.094;3.490;2023-06-05T03:16:38;17.47;;;11.03;;
56860;SDS011;42744;51.094;3.490;2023-06-05T03:19:09;17.40;;;11.37;;
56860;SDS011;42744;51.094;3.490;2023-06-05T03:21:37;15.13;;;11.57;;
56860;SDS011;42744;51.094;3.490;2023-06-05T03:24:10;17.73;;;12.03;;
56860;SDS011;42744;51.094;3.490;2023-06-05T03:26:41;15.53;;;11.30;;
56860;SDS011;42744;51.094;3.490;2023-06-05T03:29:10;14.97;;;11.10;;
56860;SDS011;42744;51.094;3.490;2023-06-05T03:31:36;17.83;;;11.30;;
56860;SDS011;42744;51.094;3.490;2023-06-05T03:34:03;18.03;;;11.87;;
56860;SDS011;42744;51.094;3.490;2023-06-05T03:36:30;15.10;;;11.30;;
56860;SDS011;42744;51.094;3.490;2023-06-05T03:39:00;15.97;;;12.13;;
56860;SDS011;42744;51.094;3.490;2023-06-05T03:41:26;14.83;;;11.77;;
56860;SDS011;42744;51.094;3.490;2023-06-05T03:43:53;17.73;;;11.33;;
56860;SDS011;42744;51.094;3.490;2023-06-05T03:46:19;18.07;;;12.57;;
56860;SDS011;42744;51.094;3.490;2023-06-05T03:48:46;16.90;;;11.53;;
56860;SDS011;42744;51.094;3.490;2023-06-05T03:51:21;16.63;;;11.43;;
56860;SDS011;42744;51.094;3.490;2023-06-05T03:53:48;13.30;;;10.83;;
56860;SDS011;42744;51.094;3.490;2023-06-05T03:56:20;14.03;;;11.13;;
56860;SDS011;42744;51.094;3.490;2023-06-05T03:58:48;20.80;;;12.40;;
56860;SDS011;42744;51.094;3.490;2023-06-05T04:01:14;17.60;;;11.57;;
56860;SDS011;42744;51.094;3.490;2023-06-05T04:03:40;17.13;;;12.00;;
56860;SDS011;42744;51.094;3.490;2023-06-05T04:06:07;17.00;;;12.00;;
56860;SDS011;42744;51.094;3.490;2023-06-05T04:08:34;17.47;;;12.07;;
56860;SDS011;42744;51.094;3.490;2023-06-05T04:11:00;17.47;;;11.67;;
56860;SDS011;42744;51.094;3.490;2023-06-05T04:13:26;18.47;;;12.57;;
56860;SDS011;42744;51.094;3.490;2023-06-05T04:15:52;15.27;;;11.87;;
56860;SDS011;42744;51.094;3.490;2023-06-05T04:18:19;16.13;;;11.60;;
56860;SDS011;42744;51.094;3.490;2023-06-05T04:20:46;18.37;;;12.03;;
56860;SDS011;42744;51.094;3.490;2023-06-05T04:23:12;16.27;;;12.20;;
56860;SDS011;42744;51.094;3.490;2023-06-05T04:25:39;18.80;;;11.23;;
56860;SDS011;42744;51.094;3.490;2023-06-05T04:28:11;16.10;;;12.17;;
56860;SDS011;42744;51.094;3.490;2023-06-05T04:30:37;16.50;;;11.40;;
56860;SDS011;42744;51.094;3.490;2023-06-05T04:33:03;17.83;;;11.27;;
56860;SDS011;42744;51.094;3.490;2023-06-05T04:35:31;17.00;;;11.60;;
56860;SDS011;42744;51.094;3.490;2023-06-05T04:37:59;15.17;;;11.60;;
56860;SDS011;42744;51.094;3.490;2023-06-05T04:40:26;15.73;;;11.53;;
56860;SDS011;42744;51.094;3.490;2023-06-05T04:42:53;14.77;;;11.40;;
56860;SDS011;42744;51.094;3.490;2023-06-05T04:45:20;17.57;;;11.10;;
56860;SDS011;42744;51.094;3.490;2023-06-05T04:47:47;16.27;;;11.30;;
56860;SDS011;42744;51.094;3.490;2023-06-05T04:50:26;18.77;;;11.43;;
56860;SDS011;42744;51.094;3.490;2023-06-05T04:52:53;13.73;;;11.00;;
56860;SDS011;42744;51.094;3.490;2023-06-05T04:55:20;16.23;;;11.63;;
56860;SDS011;42744;51.094;3.490;2023-06-05T04:57:47;16.13;;;11.60;;
56860;SDS011;42744;51.094;3.490;2023-06-05T05:00:15;15.53;;;10.77;;
56860;SDS011;42744;51.094;3.490;2023-06-05T05:02:41;19.37;;;11.03;;
56860;SDS011;42744;51.094;3.490;2023-06-05T05:05:07;18.03;;;10.27;;
56860;SDS011;42744;51.094;3.490;2023-06-05T05:07:34;15.17;;;10.43;;
56860;SDS011;42744;51.094;3.490;2023-06-05T05:10:01;16.33;;;10.00;;
56860;SDS011;42744;51.094;3.490;2023-06-05T05:12:29;14.10;;;9.67;;
56860;SDS011;42744;51.094;3.490;2023-06-05T05:14:55;14.17;;;9.87;;
56860;SDS011;42744;51.094;3.490;2023-06-05T05:17:21;16.87;;;10.90;;
56860;SDS011;42744;51.094;3.490;2023-06-05T05:19:48;13.60;;;10.13;;
56860;SDS011;42744;51.094;3.490;2023-06-05T05:22:14;16.57;;;11.17;;
56860;SDS011;42744;51.094;3.490;2023-06-05T05:24:40;12.73;;;10.00;;
56860;SDS011;42744;51.094;3.490;2023-06-05T05:27:07;12.53;;;9.70;;
56860;SDS011;42744;51.094;3.490;2023-06-05T05:29:34;14.93;;;10.53;;
56860;SDS011;42744;51.094;3.490;2023-06-05T05:32:00;15.17;;;9.87;;
56860;SDS011;42744;51.094;3.490;2023-06-05T05:34:26;14.37;;;10.07;;
56860;SDS011;42744;51.094;3.490;2023-06-05T05:36:53;12.17;;;9.60;;
56860;SDS011;42744;51.094;3.490;2023-06-05T05:39:19;13.47;;;9.87;;
56860;SDS011;42744;51.094;3.490;2023-06-05T05:41:45;12.10;;;8.90;;
56860;SDS011;42744;51.094;3.490;2023-06-05T05:44:11;12.03;;;9.27;;
56860;SDS011;42744;51.094;3.490;2023-06-05T05:46:37;12.67;;;8.33;;
56860;SDS011;42744;51.094;3.490;2023-06-05T05:49:03;13.50;;;8.27;;
56860;SDS011;42744;51.094;3.490;2023-06-05T05:51:29;13.97;;;9.43;;
56860;SDS011;42744;51.094;3.490;2023-06-05T05:53:56;15.50;;;9.43;;
56860;SDS011;42744;51.094;3.490;2023-06-05T05:56:22;10.87;;;8.23;;
56860;SDS011;42744;51.094;3.490;2023-06-05T05:58:48;12.47;;;8.67;;
56860;SDS011;42744;51.094;3.490;2023-06-05T06:01:14;16.73;;;9.10;;
56860;SDS011;42744;51.094;3.490;2023-06-05T06:03:41;13.00;;;8.77;;
56860;SDS011;42744;51.094;3.490;2023-06-05T06:06:07;14.97;;;9.20;;
56860;SDS011;42744;51.094;3.490;2023-06-05T06:08:34;12.67;;;9.03;;
56860;SDS011;42744;51.094;3.490;2023-06-05T06:11:01;11.00;;;7.97;;
56860;SDS011;42744;51.094;3.490;2023-06-05T06:13:31;12.43;;;8.27;;
56860;SDS011;42744;51.094;3.490;2023-06-05T06:15:59;11.90;;;8.63;;
56860;SDS011;42744;51.094;3.490;2023-06-05T06:18:26;11.60;;;8.67;;
56860;SDS011;42744;51.094;3.490;2023-06-05T06:20:52;13.77;;;9.33;;
56860;SDS011;42744;51.094;3.490;2023-06-05T06:23:18;11.10;;;8.73;;
56860;SDS011;42744;51.094;3.490;2023-06-05T06:25:44;13.63;;;8.83;;
56860;SDS011;42744;51.094;3.490;2023-06-05T06:28:11;10.03;;;8.57;;
56860;SDS011;42744;51.094;3.490;2023-06-05T06:30:37;11.77;;;8.27;;
56860;SDS011;42744;51.094;3.490;2023-06-05T06:33:03;10.87;;;8.60;;
56860;SDS011;42744;51.094;3.490;2023-06-05T06:35:30;14.97;;;9.70;;
56860;SDS011;42744;51.094;3.490;2023-06-05T06:38:00;11.20;;;8.47;;
56860;SDS011;42744;51.094;3.490;2023-06-05T06:40:26;11.90;;;8.33;;
56860;SDS011;42744;51.094;3.490;2023-06-05T06:42:54;13.80;;;8.43;;
56860;SDS011;42744;51.094;3.490;2023-06-05T06:45:21;11.60;;;7.70;;
56860;SDS011;42744;51.094;3.490;2023-06-05T06:47:48;11.73;;;8.77;;
56860;SDS011;42744;51.094;3.490;2023-06-05T06:50:14;12.60;;;7.87;;
56860;SDS011;42744;51.094;3.490;2023-06-05T06:52:40;10.80;;;7.47;;
56860;SDS011;42744;51.094;3.490;2023-06-05T06:55:06;8.30;;;7.40;;
56860;SDS011;42744;51.094;3.490;2023-06-05T06:57:32;11.40;;;7.87;;
56860;SDS011;42744;51.094;3.490;2023-06-05T06:59:58;12.17;;;8.30;;
56860;SDS011;42744;51.094;3.490;2023-06-05T07:02:25;9.97;;;7.57;;
56860;SDS011;42744;51.094;3.490;2023-06-05T07:04:51;10.13;;;7.57;;
56860;SDS011;42744;51.094;3.490;2023-06-05T07:07:19;13.93;;;8.20;;
56860;SDS011;42744;51.094;3.490;2023-06-05T07:09:48;10.50;;;7.60;;
56860;SDS011;42744;51.094;3.490;2023-06-05T07:12:16;8.80;;;7.50;;
56860;SDS011;42744;51.094;3.490;2023-06-05T07:14:44;8.00;;;6.63;;
56860;SDS011;42744;51.094;3.490;2023-06-05T07:17:11;12.07;;;7.57;;
56860;SDS011;42744;51.094;3.490;2023-06-05T07:19:37;12.00;;;7.30;;
56860;SDS011;42744;51.094;3.490;2023-06-05T07:22:04;9.60;;;7.23;;
56860;SDS011;42744;51.094;3.490;2023-06-05T07:24:31;12.83;;;8.13;;
56860;SDS011;42744;51.094;3.490;2023-06-05T07:27:01;10.57;;;7.63;;
56860;SDS011;42744;51.094;3.490;2023-06-05T07:29:28;10.40;;;7.20;;
56860;SDS011;42744;51.094;3.490;2023-06-05T07:31:55;9.03;;;6.90;;
56860;SDS011;42744;51.094;3.490;2023-06-05T07:34:22;9.97;;;6.90;;
56860;SDS011;42744;51.094;3.490;2023-06-05T07:36:49;10.07;;;6.93;;
56860;SDS011;42744;51.094;3.490;2023-06-05T07:39:17;9.37;;;7.00;;
56860;SDS011;42744;51.094;3.490;2023-06-05T07:41:47;11.73;;;7.20;;
56860;SDS011;42744;51.094;3.490;2023-06-05T07:44:14;9.47;;;7.10;;
56860;SDS011;42744;51.094;3.490;2023-06-05T07:46:42;7.33;;;6.53;;
56860;SDS011;42744;51.094;3.490;2023-06-05T07:49:09;12.70;;;7.23;;
56860;SDS011;42744;51.094;3.490;2023-06-05T07:51:36;7.30;;;6.27;;
56860;SDS011;42744;51.094;3.490;2023-06-05T07:54:03;10.17;;;6.47;;
56860;SDS011;42744;51.094;3.490;2023-06-05T07:56:30;8.77;;;6.00;;
56860;SDS011;42744;51.094;3.490;2023-06-05T07:58:57;10.13;;;7.03;;
56860;SDS011;42744;51.094;3.490;2023-06-05T08:01:23;8.67;;;6.33;;
56860;SDS011;42744;51.094;3.490;2023-06-05T08:03:49;12.13;;;6.63;;
56860;SDS011;42744;51.094;3.490;2023-06-05T08:06:15;8.37;;;6.23;;
56860;SDS011;42744;51.094;3.490;2023-06-05T08:08:41;10.53;;;6.63;;
56860;SDS011;42744;51.094;3.490;2023-06-05T08:11:09;11.47;;;6.27;;
56860;SDS011;42744;51.094;3.490;2023-06-05T08:13:36;9.93;;;6.17;;
56860;SDS011;42744;51.094;3.490;2023-06-05T08:16:04;8.63;;;6.00;;
56860;SDS011;42744;51.094;3.490;2023-06-05T08:18:30;9.43;;;6.57;;
56860;SDS011;42744;51.094;3.490;2023-06-05T08:20:57;7.53;;;5.77;;
56860;SDS011;42744;51.094;3.490;2023-06-05T08:23:22;8.10;;;5.83;;
56860;SDS011;42744;51.094;3.490;2023-06-05T08:25:49;8.40;;;5.83;;
56860;SDS011;42744;51.094;3.490;2023-06-05T08:28:15;10.77;;;6.00;;
56860;SDS011;42744;51.094;3.490;2023-06-05T08:30:41;8.50;;;5.30;;
56860;SDS011;42744;51.094;3.490;2023-06-05T08:33:09;9.50;;;5.90;;
56860;SDS011;42744;51.094;3.490;2023-06-05T08:35:35;8.10;;;5.27;;
56860;SDS011;42744;51.094;3.490;2023-06-05T08:38:04;7.17;;;5.53;;
56860;SDS011;42744;51.094;3.490;2023-06-05T08:40:31;8.27;;;5.70;;
56860;SDS011;42744;51.094;3.490;2023-06-05T08:42:59;9.27;;;5.67;;
56860;SDS011;42744;51.094;3.490;2023-06-05T08:45:26;7.90;;;6.00;;
56860;SDS011;42744;51.094;3.490;2023-06-05T08:47:53;7.23;;;6.07;;
56860;SDS011;42744;51.094;3.490;2023-06-05T08:50:20;8.00;;;5.77;;
56860;SDS011;42744;51.094;3.490;2023-06-05T08:52:46;7.37;;;5.13;;
56860;SDS011;42744;51.094;3.490;2023-06-05T08:55:15;10.17;;;5.67;;
56860;SDS011;42744;51.094;3.490;2023-06-05T08:57:41;10.17;;;5.83;;
56860;SDS011;42744;51.094;3.490;2023-06-05T09:00:08;7.07;;;5.47;;
56860;SDS011;42744;51.094;3.490;2023-06-05T09:02:41;8.30;;;5.30;;
56860;SDS011;42744;51.094;3.490;2023-06-05T09:05:12;7.03;;;5.40;;
56860;SDS011;42744;51.094;3.490;2023-06-05T09:07:38;7.63;;;5.37;;
56860;SDS011;42744;51.094;3.490;2023-06-05T09:10:06;6.60;;;4.93;;
56860;SDS011;42744;51.094;3.490;2023-06-05T09:12:51;7.17;;;5.73;;
56860;SDS011;42744;51.094;3.490;2023-06-05T09:15:29;7.63;;;5.27;;
56860;SDS011;42744;51.094;3.490;2023-06-05T09:18:03;6.63;;;5.27;;
56860;SDS011;42744;51.094;3.490;2023-06-05T09:20:37;8.00;;;4.73;;
56860;SDS011;42744;51.094;3.490;2023-06-05T09:23:24;6.83;;;5.30;;
56860;SDS011;42744;51.094;3.490;2023-06-05T09:25:52;6.50;;;5.07;;
56860;SDS011;42744;51.094;3.490;2023-06-05T09:28:20;5.83;;;4.43;;
56860;SDS011;42744;51.094;3.490;2023-06-05T09:30:56;6.87;;;4.80;;
56860;SDS011;42744;51.094;3.490;2023-06-05T09:33:29;7.87;;;4.53;;
56860;SDS011;42744;51.094;3.490;2023-06-05T09:36:02;6.37;;;4.67;;
56860;SDS011;42744;51.094;3.490;2023-06-05T09:38:29;7.57;;;4.83;;
56860;SDS011;42744;51.094;3.490;2023-06-05T09:41:08;7.33;;;4.77;;
56860;SDS011;42744;51.094;3.490;2023-06-05T09:43:36;7.70;;;5.20;;
56860;SDS011;42744;51.094;3.490;2023-06-05T09:46:07;7.13;;;5.43;;
56860;SDS011;42744;51.094;3.490;2023-06-05T09:48:34;6.97;;;5.97;;
56860;SDS011;42744;51.094;3.490;2023-06-05T09:51:08;11.43;;;7.13;;
56860;SDS011;42744;51.094;3.490;2023-06-05T09:53:37;7.53;;;5.97;;
56860;SDS011;42744;51.094;3.490;2023-06-05T09:56:15;8.60;;;6.17;;
56860;SDS011;42744;51.094;3.490;2023-06-05T09:58:46;9.60;;;6.83;;
56860;SDS011;42744;51.094;3.490;2023-06-05T10:01:18;9.77;;;6.60;;
56860;SDS011;42744;51.094;3.490;2023-06-05T10:06:23;11.17;;;6.60;;
56860;SDS011;42744;51.094;3.490;2023-06-05T10:08:53;10.27;;;7.33;;
56860;SDS011;42744;51.094;3.490;2023-06-05T10:11:21;8.13;;;6.07;;
56860;SDS011;42744;51.094;3.490;2023-06-05T10:13:48;7.33;;;6.63;;
56860;SDS011;42744;51.094;3.490;2023-06-05T10:16:16;7.50;;;6.07;;
56860;SDS011;42744;51.094;3.490;2023-06-05T10:18:45;8.13;;;6.73;;
56860;SDS011;42744;51.094;3.490;2023-06-05T10:21:15;7.57;;;6.30;;
56860;SDS011;42744;51.094;3.490;2023-06-05T10:24:00;8.30;;;6.37;;
56860;SDS011;42744;51.094;3.490;2023-06-05T10:40:54;8.13;;;6.13;;
56860;SDS011;42744;51.094;3.490;2023-06-05T10:43:28;9.37;;;6.00;;
56860;SDS011;42744;51.094;3.490;2023-06-05T10:45:55;8.27;;;6.20;;
56860;SDS011;42744;51.094;3.490;2023-06-05T10:51:31;7.57;;;6.33;;
56860;SDS011;42744;51.094;3.490;2023-06-05T10:54:02;7.30;;;5.90;;
56860;SDS011;42744;51.094;3.490;2023-06-05T10:59:21;10.18;;;6.53;;
56860;SDS011;42744;51.094;3.490;2023-06-05T11:02:22;8.73;;;6.30;;
56860;SDS011;42744;51.094;3.490;2023-06-05T11:07:16;6.68;;;5.28;;
56860;SDS011;42744;51.094;3.490;2023-06-05T11:15:09;11.00;;;6.50;;
56860;SDS011;42744;51.094;3.490;2023-06-05T11:17:38;7.70;;;6.40;;
56860;SDS011;42744;51.094;3.490;2023-06-05T11:20:05;8.35;;;6.97;;
56860;SDS011;42744;51.094;3.490;2023-06-05T11:25:36;9.35;;;6.00;;
56860;SDS011;42744;51.094;3.490;2023-06-05T11:28:02;10.45;;;6.75;;
56860;SDS011;42744;51.094;3.490;2023-06-05T11:30:31;9.27;;;6.62;;
56860;SDS011;42744;51.094;3.490;2023-06-05T11:33:20;10.00;;;6.93;;
56860;SDS011;42744;51.094;3.490;2023-06-05T11:35:49;6.40;;;5.80;;
56860;SDS011;42744;51.094;3.490;2023-06-05T11:38:18;8.13;;;5.72;;
56860;SDS011;42744;51.094;3.490;2023-06-05T11:40:49;8.13;;;6.03;;
56860;SDS011;42744;51.094;3.490;2023-06-05T11:43:15;9.25;;;6.90;;
56860;SDS011;42744;51.094;3.490;2023-06-05T11:45:41;9.43;;;6.40;;
56860;SDS011;42744;51.094;3.490;2023-06-05T11:48:14;8.98;;;6.80;;
56860;SDS011;42744;51.094;3.490;2023-06-05T11:53:31;9.52;;;5.95;;
56860;SDS011;42744;51.094;3.490;2023-06-05T11:55:58;10.00;;;6.50;;
56860;SDS011;42744;51.094;3.490;2023-06-05T11:58:33;9.02;;;6.70;;
56860;SDS011;42744;51.094;3.490;2023-06-05T12:01:05;10.07;;;7.32;;
56860;SDS011;42744;51.094;3.490;2023-06-05T12:04:03;7.87;;;6.70;;
56860;SDS011;42744;51.094;3.490;2023-06-05T12:06:31;11.45;;;8.05;;
56860;SDS011;42744;51.094;3.490;2023-06-05T12:09:10;8.35;;;6.75;;
56860;SDS011;42744;51.094;3.490;2023-06-05T12:11:37;11.05;;;7.00;;
56860;SDS011;42744;51.094;3.490;2023-06-05T12:14:04;9.80;;;7.95;;
56860;SDS011;42744;51.094;3.490;2023-06-05T12:16:31;11.20;;;7.05;;
56860;SDS011;42744;51.094;3.490;2023-06-05T12:19:01;8.07;;;6.30;;
56860;SDS011;42744;51.094;3.490;2023-06-05T12:21:35;8.90;;;7.32;;
56860;SDS011;42744;51.094;3.490;2023-06-05T12:24:02;13.45;;;7.72;;
56860;SDS011;42744;51.094;3.490;2023-06-05T12:26:29;11.32;;;7.37;;
56860;SDS011;42744;51.094;3.490;2023-06-05T12:29:02;7.45;;;6.60;;
56860;SDS011;42744;51.094;3.490;2023-06-05T12:31:36;7.95;;;6.82;;
56860;SDS011;42744;51.094;3.490;2023-06-05T12:34:05;10.88;;;6.68;;
56860;SDS011;42744;51.094;3.490;2023-06-05T12:36:38;9.35;;;7.35;;
56860;SDS011;42744;51.094;3.490;2023-06-05T12:39:06;10.13;;;7.68;;
56860;SDS011;42744;51.094;3.490;2023-06-05T12:41:35;9.73;;;7.05;;
56860;SDS011;42744;51.094;3.490;2023-06-05T12:44:02;9.70;;;7.12;;
56860;SDS011;42744;51.094;3.490;2023-06-05T12:46:33;9.65;;;6.60;;
56860;SDS011;42744;51.094;3.490;2023-06-05T12:49:01;7.93;;;7.07;;
56860;SDS011;42744;51.094;3.490;2023-06-05T12:51:28;11.48;;;6.90;;
56860;SDS011;42744;51.094;3.490;2023-06-05T12:53:55;9.30;;;7.20;;
56860;SDS011;42744;51.094;3.490;2023-06-05T12:56:25;9.88;;;6.22;;
56860;SDS011;42744;51.094;3.490;2023-06-05T12:58:53;10.43;;;7.10;;
56860;SDS011;42744;51.094;3.490;2023-06-05T13:01:23;9.27;;;6.97;;
56860;SDS011;42744;51.094;3.490;2023-06-05T13:03:50;8.65;;;7.20;;
56860;SDS011;42744;51.094;3.490;2023-06-05T13:06:17;8.27;;;6.85;;
56860;SDS011;42744;51.094;3.490;2023-06-05T13:08:44;7.53;;;6.20;;
56860;SDS011;42744;51.094;3.490;2023-06-05T13:11:12;9.82;;;6.28;;
56860;SDS011;42744;51.094;3.490;2023-06-05T13:13:38;10.25;;;7.10;;
56860;SDS011;42744;51.094;3.490;2023-06-05T13:16:05;8.90;;;7.35;;
56860;SDS011;42744;51.094;3.490;2023-06-05T13:18:33;10.13;;;7.18;;
56860;SDS011;42744;51.094;3.490;2023-06-05T13:21:00;8.98;;;5.90;;
56860;SDS011;42744;51.094;3.490;2023-06-05T13:23:28;8.07;;;6.80;;
56860;SDS011;42744;51.094;3.490;2023-06-05T13:25:54;13.70;;;7.68;;
56860;SDS011;42744;51.094;3.490;2023-06-05T13:28:20;8.07;;;7.03;;
56860;SDS011;42744;51.094;3.490;2023-06-05T13:30:46;8.20;;;6.85;;
56860;SDS011;42744;51.094;3.490;2023-06-05T13:33:12;11.95;;;8.20;;
56860;SDS011;42744;51.094;3.490;2023-06-05T13:35:39;9.88;;;7.55;;
56860;SDS011;42744;51.094;3.490;2023-06-05T13:38:06;12.43;;;6.85;;
56860;SDS011;42744;51.094;3.490;2023-06-05T13:40:32;8.45;;;6.50;;
56860;SDS011;42744;51.094;3.490;2023-06-05T13:42:58;11.93;;;6.37;;
56860;SDS011;42744;51.094;3.490;2023-06-05T13:45:25;8.15;;;5.10;;
56860;SDS011;42744;51.094;3.490;2023-06-05T13:47:51;9.52;;;6.40;;
56860;SDS011;42744;51.094;3.490;2023-06-05T13:50:17;13.13;;;6.87;;
56860;SDS011;42744;51.094;3.490;2023-06-05T13:52:47;9.48;;;6.62;;
56860;SDS011;42744;51.094;3.490;2023-06-05T13:55:13;9.98;;;6.37;;
56860;SDS011;42744;51.094;3.490;2023-06-05T13:57:39;8.18;;;5.87;;
56860;SDS011;42744;51.094;3.490;2023-06-05T14:00:06;9.80;;;6.57;;
56860;SDS011;42744;51.094;3.490;2023-06-05T14:02:32;8.05;;;6.45;;
56860;SDS011;42744;51.094;3.490;2023-06-05T14:04:59;7.53;;;5.95;;
56860;SDS011;42744;51.094;3.490;2023-06-05T14:07:25;7.40;;;5.43;;
56860;SDS011;42744;51.094;3.490;2023-06-05T14:09:51;8.65;;;6.10;;
56860;SDS011;42744;51.094;3.490;2023-06-05T14:12:17;10.23;;;5.50;;
56860;SDS011;42744;51.094;3.490;2023-06-05T14:14:43;10.38;;;5.32;;
56860;SDS011;42744;51.094;3.490;2023-06-05T14:17:09;7.97;;;4.80;;
56860;SDS011;42744;51.094;3.490;2023-06-05T14:19:35;8.95;;;4.70;;
56860;SDS011;42744;51.094;3.490;2023-06-05T14:22:01;8.70;;;5.93;;
56860;SDS011;42744;51.094;3.490;2023-06-05T14:24:30;8.98;;;6.65;;
56860;SDS011;42744;51.094;3.490;2023-06-05T14:26:57;9.43;;;6.30;;
56860;SDS011;42744;51.094;3.490;2023-06-05T14:29:23;7.40;;;5.50;;
56860;SDS011;42744;51.094;3.490;2023-06-05T14:31:49;10.90;;;5.95;;
56860;SDS011;42744;51.094;3.490;2023-06-05T14:34:15;9.85;;;5.25;;
56860;SDS011;42744;51.094;3.490;2023-06-05T14:36:41;8.00;;;4.87;;
56860;SDS011;42744;51.094;3.490;2023-06-05T14:39:18;11.07;;;5.30;;
56860;SDS011;42744;51.094;3.490;2023-06-05T14:41:46;8.05;;;5.15;;
56860;SDS011;42744;51.094;3.490;2023-06-05T14:44:12;8.32;;;5.00;;
56860;SDS011;42744;51.094;3.490;2023-06-05T14:46:38;6.47;;;5.05;;
56860;SDS011;42744;51.094;3.490;2023-06-05T14:49:04;7.05;;;5.10;;
56860;SDS011;42744;51.094;3.490;2023-06-05T14:51:30;7.47;;;5.50;;
56860;SDS011;42744;51.094;3.490;2023-06-05T14:53:56;7.90;;;5.12;;
56860;SDS011;42744;51.094;3.490;2023-06-05T14:56:22;7.82;;;4.70;;
56860;SDS011;42744;51.094;3.490;2023-06-05T14:58:48;10.13;;;5.35;;
56860;SDS011;42744;51.094;3.490;2023-06-05T15:01:17;7.40;;;4.28;;
56860;SDS011;42744;51.094;3.490;2023-06-05T15:03:45;7.07;;;5.03;;
56860;SDS011;42744;51.094;3.490;2023-06-05T15:06:11;7.40;;;4.95;;
56860;SDS011;42744;51.094;3.490;2023-06-05T15:08:37;7.20;;;4.37;;
56860;SDS011;42744;51.094;3.490;2023-06-05T15:11:03;6.82;;;4.10;;
56860;SDS011;42744;51.094;3.490;2023-06-05T15:13:32;9.50;;;4.25;;
56860;SDS011;42744;51.094;3.490;2023-06-05T15:15:59;5.95;;;4.20;;
56860;SDS011;42744;51.094;3.490;2023-06-05T15:18:25;8.13;;;4.00;;
56860;SDS011;42744;51.094;3.490;2023-06-05T15:20:51;8.50;;;4.65;;